Time;durP1;ratioP1;P1;durP2;ratioP2;P2;SDS_P1;SDS_P2;PMS_P1;PMS_P2;Temp;Humidity;BMP_temperature;BMP_pressure;BME280_temperature;BME280_humidity;BME280_pressure;Samples;Min_cycle;Max_cycle;Signal;HPM_P1;HPM_P2
2022/04/04 00:00:15;;;;;;;6.70;6.00;;;5.10;99.90;;;;;;5047265;28;20549;-41
2022/04/04 00:02:41;;;;;;;7.90;7.10;;;5.10;99.90;;;;;;5048130;28;20204;-36
2022/04/04 00:05:07;;;;;;;6.67;6.00;;;5.00;99.90;;;;;;5047212;28;20424;-35
2022/04/04 00:07:33;;;;;;;7.07;6.37;;;5.40;99.90;;;;;;5046380;28;20503;-39
2022/04/04 00:09:58;;;;;;;8.10;7.17;;;4.90;99.90;;;;;;5051877;28;21137;-37
2022/04/04 00:12:24;;;;;;;9.00;8.00;;;5.00;99.90;;;;;;5066472;28;20753;-33
2022/04/04 00:14:50;;;;;;;7.70;7.00;;;4.80;99.90;;;;;;5061213;28;20196;-33
2022/04/04 00:17:15;;;;;;;8.07;7.27;;;5.10;99.90;;;;;;5047728;28;20489;-40
2022/04/04 00:19:41;;;;;;;10.90;6.80;;;4.80;99.90;;;;;;5056086;28;20238;-34
2022/04/04 00:22:07;;;;;;;10.97;7.80;;;5.20;99.90;;;;;;5047761;28;20660;-37
2022/04/04 00:24:33;;;;;;;8.07;7.30;;;4.80;99.90;;;;;;5049779;28;20190;-38
2022/04/04 00:26:59;;;;;;;8.90;8.00;;;4.90;99.90;;;;;;5068943;28;20433;-35
2022/04/04 00:29:25;;;;;;;7.63;6.93;;;4.70;99.90;;;;;;5062984;28;20219;-38
2022/04/04 00:31:51;;;;;;;8.33;7.50;;;4.70;99.90;;;;;;5046770;28;20464;-37
2022/04/04 00:34:18;;;;;;;8.50;7.57;;;4.90;99.90;;;;;;5052752;28;20213;-38
2022/04/04 00:36:44;;;;;;;8.73;7.07;;;4.50;99.90;;;;;;5047195;28;20493;-34
2022/04/04 00:39:11;;;;;;;8.60;7.67;;;4.60;99.90;;;;;;5046981;28;20432;-38
2022/04/04 00:41:37;;;;;;;9.53;7.70;;;4.80;99.90;;;;;;5068122;28;20189;-38
2022/04/04 00:44:03;;;;;;;8.93;8.03;;;4.70;99.90;;;;;;5064142;28;20428;-37
2022/04/04 00:46:29;;;;;;;10.87;7.80;;;4.70;99.90;;;;;;5047087;28;20426;-38
2022/04/04 00:48:55;;;;;;;9.37;8.30;;;4.70;99.90;;;;;;5048465;28;20420;-37
2022/04/04 00:51:21;;;;;;;9.70;7.87;;;4.70;99.90;;;;;;5046097;28;20247;-38
2022/04/04 00:53:47;;;;;;;8.33;7.40;;;4.90;99.90;;;;;;5047129;28;20631;-40
2022/04/04 00:56:13;;;;;;;9.03;8.13;;;4.80;99.90;;;;;;5057273;28;20457;-37
2022/04/04 00:58:39;;;;;;;8.77;7.90;;;5.00;99.90;;;;;;5052218;28;20788;-39
2022/04/04 01:01:05;;;;;;;8.90;7.90;;;4.70;99.90;;;;;;5050590;28;20423;-39
2022/04/04 01:03:31;;;;;;;8.97;8.07;;;4.90;99.90;;;;;;5051957;28;20236;-38
2022/04/04 01:05:58;;;;;;;9.43;7.87;;;4.50;99.90;;;;;;5051090;28;20448;-37
2022/04/04 01:08:24;;;;;;;8.43;7.53;;;4.70;99.90;;;;;;5046018;28;20213;-39
2022/04/04 01:10:50;;;;;;;8.50;7.70;;;4.70;99.90;;;;;;5058876;28;20486;-38
2022/04/04 01:13:16;;;;;;;9.20;8.30;;;4.70;99.90;;;;;;5064621;28;20461;-38
2022/04/04 01:15:41;;;;;;;9.23;8.37;;;4.50;99.90;;;;;;5050712;28;20416;-38
2022/04/04 01:18:08;;;;;;;9.17;8.27;;;4.50;99.90;;;;;;5048583;28;20528;-40
2022/04/04 01:20:35;;;;;;;12.93;8.67;;;4.50;99.90;;;;;;5050683;28;20548;-37
2022/04/04 01:23:00;;;;;;;8.67;7.87;;;4.60;99.90;;;;;;5047585;28;21125;-39
2022/04/04 01:25:28;;;;;;;8.90;8.00;;;4.80;99.90;;;;;;5047651;28;20527;-39
2022/04/04 01:27:55;;;;;;;9.53;8.57;;;4.80;99.90;;;;;;5062141;28;20188;-35
2022/04/04 01:30:22;;;;;;;10.07;9.03;;;4.70;99.90;;;;;;5052915;28;20606;-41
2022/04/04 01:32:49;;;;;;;9.57;8.57;;;4.50;99.90;;;;;;5047142;28;20882;-36
2022/04/04 01:35:18;;;;;;;9.60;8.63;;;4.30;99.90;;;;;;5047990;28;20571;-40
2022/04/04 01:37:45;;;;;;;10.07;8.47;;;4.60;99.90;;;;;;5046830;28;20424;-40
2022/04/04 01:40:10;;;;;;;9.70;8.30;;;4.50;99.90;;;;;;5048189;28;20969;-35
2022/04/04 01:42:37;;;;;;;9.60;8.37;;;4.50;99.90;;;;;;5062685;28;20455;-35
2022/04/04 01:45:08;;;;;;;8.97;7.47;;;4.60;99.90;;;;;;5060632;28;20186;-37
2022/04/04 01:47:34;;;;;;;8.77;7.87;;;4.80;99.90;;;;;;5046623;28;20424;-38
2022/04/04 01:50:01;;;;;;;10.20;8.23;;;4.70;99.90;;;;;;5046096;28;20791;-39
2022/04/04 01:52:29;;;;;;;7.50;6.80;;;4.60;99.90;;;;;;5046281;28;20459;-35
2022/04/04 01:54:55;;;;;;;9.30;7.40;;;4.60;99.90;;;;;;5045816;28;20424;-39
2022/04/04 01:57:21;;;;;;;10.87;8.27;;;4.70;99.90;;;;;;5059468;28;20440;-34
2022/04/04 01:59:46;;;;;;;9.80;7.57;;;4.60;99.90;;;;;;5060053;28;20605;-38
2022/04/04 02:02:12;;;;;;;10.20;7.90;;;4.50;99.90;;;;;;5047944;28;20208;-36
2022/04/04 02:04:38;;;;;;;8.77;7.87;;;4.50;99.90;;;;;;5057077;28;20340;-37
2022/04/04 02:07:05;;;;;;;8.63;7.70;;;4.50;99.90;;;;;;5050127;28;20224;-39
2022/04/04 02:09:32;;;;;;;7.37;6.67;;;4.20;99.90;;;;;;5054975;28;20189;-36
2022/04/04 02:11:58;;;;;;;7.87;7.10;;;4.50;99.90;;;;;;5070197;28;20461;-37
2022/04/04 02:14:23;;;;;;;8.77;7.00;;;4.40;99.90;;;;;;5070208;28;20423;-38
2022/04/04 02:16:49;;;;;;;8.87;7.20;;;4.50;99.90;;;;;;5049698;28;20215;-36
2022/04/04 02:19:17;;;;;;;7.67;6.87;;;4.50;99.90;;;;;;5053028;28;20186;-37
2022/04/04 02:21:44;;;;;;;8.30;6.90;;;4.40;99.90;;;;;;5049323;28;20185;-37
2022/04/04 02:24:09;;;;;;;8.70;7.80;;;4.50;99.90;;;;;;5050479;28;20447;-40
2022/04/04 02:26:35;;;;;;;8.67;6.97;;;4.40;99.90;;;;;;5054141;28;20943;-36
2022/04/04 02:29:01;;;;;;;9.30;7.70;;;4.60;99.90;;;;;;5072519;28;20200;-36
2022/04/04 02:31:26;;;;;;;9.30;8.20;;;4.60;99.90;;;;;;5048482;28;20182;-39
2022/04/04 02:33:52;;;;;;;9.43;8.30;;;4.60;99.90;;;;;;5053116;28;20369;-39
2022/04/04 02:36:20;;;;;;;8.50;7.00;;;4.20;99.90;;;;;;5058340;28;20201;-37
2022/04/04 02:38:46;;;;;;;7.80;6.00;;;4.40;99.90;;;;;;5049226;28;20420;-40
2022/04/04 02:41:11;;;;;;;7.57;6.80;;;4.30;99.90;;;;;;5050513;28;20459;-39
2022/04/04 02:43:37;;;;;;;8.10;6.53;;;4.20;99.90;;;;;;5067353;28;20181;-34
2022/04/04 02:46:03;;;;;;;8.17;6.50;;;4.20;99.90;;;;;;5059118;28;20193;-32
2022/04/04 02:48:28;;;;;;;7.60;6.73;;;4.60;99.90;;;;;;5049193;28;20927;-36
2022/04/04 02:50:54;;;;;;;7.53;6.60;;;4.50;99.90;;;;;;5057497;28;20190;-39
2022/04/04 02:53:20;;;;;;;10.93;6.70;;;4.60;99.90;;;;;;5049228;28;20205;-38
2022/04/04 02:58:30;;;;;;;7.77;6.63;;;4.60;99.90;;;;;;5070595;28;20560;-38
2022/04/04 03:00:55;;;;;;;9.67;7.67;;;4.70;99.90;;;;;;5072208;28;20431;-36
2022/04/04 03:03:23;;;;;;;8.83;7.63;;;4.70;99.90;;;;;;5048097;28;20710;-37
2022/04/04 03:05:49;;;;;;;8.87;7.23;;;4.50;99.90;;;;;;5052864;28;20531;-34
2022/04/04 03:08:15;;;;;;;8.67;7.10;;;4.60;99.90;;;;;;5048984;28;20870;-35
2022/04/04 03:10:41;;;;;;;9.63;7.53;;;4.60;99.90;;;;;;5060767;28;20188;-40
2022/04/04 03:13:07;;;;;;;8.97;7.80;;;4.50;99.90;;;;;;5079386;28;20468;-39
2022/04/04 03:15:34;;;;;;;10.20;7.83;;;4.70;99.90;;;;;;5056275;28;20320;-38
2022/04/04 03:18:00;;;;;;;10.07;8.50;;;4.70;99.90;;;;;;5048894;28;20189;-39
2022/04/04 03:20:26;;;;;;;9.57;8.50;;;4.50;99.90;;;;;;5060767;28;20483;-36
2022/04/04 03:22:54;;;;;;;9.63;7.33;;;4.50;99.90;;;;;;5049335;28;20431;-35
2022/04/04 03:25:20;;;;;;;14.80;8.53;;;4.70;99.90;;;;;;5048445;28;20467;-36
2022/04/04 03:27:47;;;;;;;9.47;7.93;;;4.40;99.90;;;;;;5050419;28;20957;-36
2022/04/04 03:30:19;;;;;;;10.03;7.33;;;4.50;99.90;;;;;;5053122;28;20186;-33
2022/04/04 03:32:46;;;;;;;9.57;8.00;;;4.40;99.90;;;;;;5048340;28;20463;-34
2022/04/04 03:35:15;;;;;;;8.10;7.30;;;4.60;99.90;;;;;;5057016;28;20791;-37
2022/04/04 03:37:43;;;;;;;8.73;7.80;;;4.40;99.90;;;;;;5048385;28;20865;-36
2022/04/04 03:40:12;;;;;;;9.80;7.47;;;4.20;99.90;;;;;;5047804;28;20454;-35
2022/04/04 03:42:38;;;;;;;10.97;8.53;;;4.30;99.90;;;;;;5058087;28;20671;-38
2022/04/04 03:45:08;;;;;;;9.53;8.07;;;4.20;99.90;;;;;;5066811;28;21049;-37
2022/04/04 03:47:34;;;;;;;9.57;8.57;;;4.20;99.90;;;;;;5048417;28;20428;-33
2022/04/04 03:50:00;;;;;;;11.20;8.10;;;4.30;99.90;;;;;;5051835;28;20520;-33
2022/04/04 03:52:26;;;;;;;12.57;8.43;;;4.50;99.90;;;;;;5046950;28;20559;-37
2022/04/04 03:54:52;;;;;;;10.23;8.20;;;4.50;99.90;;;;;;5047692;28;20836;-35
2022/04/04 03:57:18;;;;;;;10.77;8.50;;;4.50;99.90;;;;;;5054107;28;20487;-35
2022/04/04 03:59:44;;;;;;;9.03;8.13;;;4.40;99.90;;;;;;5076158;28;20191;-32
2022/04/04 04:02:11;;;;;;;8.60;7.80;;;4.70;99.90;;;;;;5049907;28;20628;-37
2022/04/04 04:04:37;;;;;;;10.80;8.10;;;4.50;99.90;;;;;;5049598;28;20431;-35
2022/04/04 04:07:03;;;;;;;11.70;8.90;;;4.30;99.90;;;;;;5056800;28;20431;-35
2022/04/04 04:09:29;;;;;;;9.53;7.80;;;4.50;99.90;;;;;;5052204;28;20436;-35
2022/04/04 04:11:55;;;;;;;7.90;6.83;;;4.50;99.90;;;;;;5067608;28;20520;-34
2022/04/04 04:14:22;;;;;;;9.67;8.20;;;4.60;99.90;;;;;;5061442;28;20186;-38
2022/04/04 04:16:48;;;;;;;11.53;7.70;;;4.60;99.90;;;;;;5054983;28;20450;-38
2022/04/04 04:21:58;;;;;;;12.27;8.63;;;4.40;99.90;;;;;;5054194;28;20198;-39
2022/04/04 04:24:23;;;;;;;8.90;7.47;;;4.40;99.90;;;;;;5047423;28;20440;-37
2022/04/04 04:26:49;;;;;;;11.87;8.47;;;4.30;99.90;;;;;;5054046;28;20441;-37
2022/04/04 04:29:15;;;;;;;11.10;8.13;;;4.40;99.90;;;;;;5075179;28;20188;-36
2022/04/04 04:31:40;;;;;;;10.17;8.30;;;4.40;99.90;;;;;;5053315;28;20580;-36
2022/04/04 04:34:06;;;;;;;16.27;8.27;;;4.50;99.90;;;;;;5047550;28;20193;-36
2022/04/04 04:36:32;;;;;;;11.70;8.90;;;4.30;99.90;;;;;;5052526;28;20188;-34
2022/04/04 04:38:57;;;;;;;11.60;8.50;;;4.30;99.90;;;;;;5047589;28;20262;-37
2022/04/04 04:41:23;;;;;;;15.30;8.70;;;4.50;99.90;;;;;;5046192;28;20424;-37
2022/04/04 04:43:48;;;;;;;11.50;8.53;;;4.50;99.90;;;;;;5068711;28;20709;-34
2022/04/04 04:46:14;;;;;;;10.70;8.23;;;4.50;99.90;;;;;;5058499;28;20569;-34
2022/04/04 04:48:40;;;;;;;13.30;9.27;;;4.40;99.90;;;;;;5046985;28;20193;-33
2022/04/04 04:51:05;;;;;;;11.30;9.00;;;4.30;99.90;;;;;;5048868;28;20281;-35
2022/04/04 04:53:32;;;;;;;12.83;9.00;;;4.40;99.90;;;;;;5068940;28;20217;-38
2022/04/04 04:55:58;;;;;;;10.80;8.80;;;4.40;99.90;;;;;;5061956;28;20204;-34
2022/04/04 04:58:24;;;;;;;12.00;9.43;;;4.20;99.90;;;;;;5064340;28;20429;-36
2022/04/04 05:00:49;;;;;;;12.77;9.10;;;4.40;99.90;;;;;;5073983;28;20625;-37
2022/04/04 05:03:24;;;;;;;11.60;8.50;;;4.30;99.90;;;;;;5045512;28;20202;-36
2022/04/04 05:05:50;;;;;;;13.13;9.80;;;4.20;99.90;;;;;;5057532;28;20233;-36
2022/04/04 05:08:16;;;;;;;14.50;9.37;;;4.40;99.90;;;;;;5047109;28;20460;-35
2022/04/04 05:10:41;;;;;;;13.33;8.77;;;4.40;99.90;;;;;;5060706;28;20480;-35
2022/04/04 05:13:07;;;;;;;11.83;9.73;;;4.20;99.90;;;;;;5067904;28;20466;-39
2022/04/04 05:15:33;;;;;;;15.07;10.10;;;4.20;99.90;;;;;;5070234;28;20211;-35
2022/04/04 05:17:59;;;;;;;14.17;9.60;;;4.30;99.90;;;;;;5046837;28;20185;-37
2022/04/04 05:20:24;;;;;;;12.37;10.73;;;4.20;99.90;;;;;;5051506;28;20199;-35
2022/04/04 05:22:50;;;;;;;13.50;9.73;;;4.30;99.90;;;;;;5048045;28;20276;-36
2022/04/04 05:25:16;;;;;;;13.47;10.50;;;4.00;99.90;;;;;;5046797;28;20214;-37
2022/04/04 05:27:42;;;;;;;12.10;9.67;;;4.20;99.90;;;;;;5054732;28;20704;-36
2022/04/04 05:30:09;;;;;;;14.27;10.13;;;4.30;99.90;;;;;;5067474;28;20200;-36
2022/04/04 05:32:35;;;;;;;12.23;9.90;;;4.00;99.90;;;;;;5056060;28;20480;-36
2022/04/04 05:35:08;;;;;;;12.67;9.90;;;4.10;99.90;;;;;;5048072;28;20433;-35
2022/04/04 05:37:34;;;;;;;10.80;9.27;;;4.10;99.90;;;;;;5049043;28;20423;-39
2022/04/04 05:40:00;;;;;;;13.00;10.00;;;4.00;99.90;;;;;;5050072;28;20517;-37
2022/04/04 05:42:28;;;;;;;11.53;8.90;;;4.00;99.90;;;;;;5057415;28;20431;-34
2022/04/04 05:44:53;;;;;;;15.63;9.77;;;4.40;99.90;;;;;;5060531;28;20430;-38
2022/04/04 05:47:20;;;;;;;12.90;9.70;;;4.00;99.90;;;;;;5067887;28;20434;-34
2022/04/04 05:49:46;;;;;;;14.53;9.47;;;4.10;99.90;;;;;;5072009;28;20188;-34
2022/04/04 05:52:12;;;;;;;14.30;9.70;;;4.10;99.90;;;;;;5068035;28;20837;-37
2022/04/04 05:54:54;;;;;;;16.67;10.13;;;4.30;99.90;;;;;;5050964;28;20440;-37
2022/04/04 05:57:21;;;;;;;15.00;10.33;;;4.30;99.90;;;;;;5063546;28;20238;-41
2022/04/04 05:59:47;;;;;;;14.37;9.10;;;4.30;99.90;;;;;;5063071;28;20816;-41
2022/04/04 06:02:13;;;;;;;12.40;9.30;;;4.40;99.90;;;;;;5075001;28;20435;-37
2022/04/04 06:04:38;;;;;;;13.90;9.47;;;4.40;99.90;;;;;;5070363;28;20210;-35
2022/04/04 06:07:04;;;;;;;14.20;9.70;;;4.60;99.90;;;;;;5061508;28;20209;-35
2022/04/04 06:09:30;;;;;;;13.07;10.30;;;4.40;99.90;;;;;;5053922;28;20185;-35
2022/04/04 06:11:56;;;;;;;13.97;8.93;;;4.50;99.90;;;;;;5068162;28;20605;-36
2022/04/04 06:14:21;;;;;;;14.83;9.30;;;4.40;99.90;;;;;;5058331;28;20276;-36
2022/04/04 06:16:47;;;;;;;10.60;7.70;;;4.60;99.90;;;;;;5070155;28;20192;-35
2022/04/04 06:19:13;;;;;;;12.23;8.87;;;4.50;99.90;;;;;;5049404;28;20327;-38
2022/04/04 06:21:39;;;;;;;12.37;9.10;;;4.60;99.90;;;;;;5051172;28;20201;-35
2022/04/04 06:24:05;;;;;;;11.27;8.70;;;4.60;99.90;;;;;;5063295;28;20794;-36
2022/04/04 06:26:31;;;;;;;11.93;9.73;;;4.80;99.90;;;;;;5049716;28;20767;-39
2022/04/04 06:28:57;;;;;;;11.47;8.40;;;4.90;99.90;;;;;;5064871;28;20487;-37
2022/04/04 06:31:23;;;;;;;9.40;8.17;;;4.90;99.90;;;;;;5066574;28;20192;-37
2022/04/04 06:33:48;;;;;;;10.60;8.13;;;4.80;99.90;;;;;;5059511;28;20214;-35
2022/04/04 06:36:14;;;;;;;11.63;8.77;;;5.00;99.90;;;;;;5059130;28;20257;-35
2022/04/04 06:38:40;;;;;;;12.33;9.27;;;4.90;99.90;;;;;;5062808;28;20213;-37
2022/04/04 06:41:06;;;;;;;13.33;8.03;;;4.70;99.90;;;;;;5055819;28;20677;-35
2022/04/04 06:43:32;;;;;;;9.93;7.97;;;5.00;99.90;;;;;;5061384;28;20190;-35
2022/04/04 06:45:58;;;;;;;12.77;8.10;;;4.90;99.90;;;;;;5077368;28;20632;-35
2022/04/04 06:48:23;;;;;;;12.20;7.73;;;4.90;99.90;;;;;;5049216;28;20455;-37
2022/04/04 06:50:49;;;;;;;10.47;7.00;;;5.20;99.90;;;;;;5052236;28;20189;-36
2022/04/04 06:53:16;;;;;;;10.40;7.20;;;5.20;99.90;;;;;;5061585;28;20209;-39
2022/04/04 06:55:44;;;;;;;10.47;7.40;;;5.10;99.90;;;;;;5058849;28;20412;-37
2022/04/04 06:58:11;;;;;;;9.47;7.80;;;5.10;99.90;;;;;;5060586;28;20466;-33
2022/04/04 07:00:36;;;;;;;9.00;8.07;;;5.10;99.90;;;;;;5069711;28;20865;-38
2022/04/04 07:03:02;;;;;;;9.13;7.70;;;5.20;99.90;;;;;;5058578;28;20511;-36
2022/04/04 07:05:28;;;;;;;14.20;7.50;;;5.40;99.90;;;;;;5056985;28;20723;-35
2022/04/04 07:07:54;;;;;;;10.23;7.97;;;5.30;99.90;;;;;;5058807;28;20464;-39
2022/04/04 07:10:21;;;;;;;10.03;7.33;;;5.40;99.90;;;;;;5058866;28;20196;-35
2022/04/04 07:12:47;;;;;;;8.73;7.77;;;5.50;99.90;;;;;;5055119;28;20225;-33
2022/04/04 07:15:13;;;;;;;9.83;7.60;;;5.50;99.90;;;;;;5073073;28;20447;-35
2022/04/04 07:17:43;;;;;;;9.97;7.80;;;5.60;99.90;;;;;;5051743;28;20189;-36
2022/04/04 07:20:09;;;;;;;14.10;7.97;;;5.70;99.90;;;;;;5051473;28;20190;-35
2022/04/04 07:22:37;;;;;;;10.57;7.27;;;5.70;99.90;;;;;;5049657;28;21068;-35
2022/04/04 07:25:10;;;;;;;10.40;8.20;;;5.70;99.90;;;;;;5049151;28;20424;-39
2022/04/04 07:27:36;;;;;;;12.47;8.27;;;5.80;99.90;;;;;;5056584;28;20439;-38
2022/04/04 07:30:03;;;;;;;10.90;8.33;;;5.80;99.90;;;;;;5059637;28;20410;-33
2022/04/04 07:32:29;;;;;;;11.23;7.70;;;5.60;99.90;;;;;;5064099;28;20537;-35
2022/04/04 07:34:55;;;;;;;10.10;7.90;;;5.40;99.90;;;;;;5048502;28;20423;-38
2022/04/04 07:37:22;;;;;;;9.40;7.50;;;5.70;99.90;;;;;;5056016;28;20182;-37
2022/04/04 07:39:47;;;;;;;8.97;7.37;;;6.00;99.90;;;;;;5047344;28;20562;-35
2022/04/04 07:42:13;;;;;;;11.20;7.43;;;6.00;99.90;;;;;;5047214;28;20892;-36
2022/04/04 07:44:39;;;;;;;12.00;7.50;;;6.10;99.90;;;;;;5077045;28;20198;-33
2022/04/04 07:47:05;;;;;;;8.10;7.07;;;6.10;99.90;;;;;;5052706;28;20643;-35
2022/04/04 07:49:34;;;;;;;10.63;7.63;;;5.90;99.90;;;;;;5056299;28;20419;-37
2022/04/04 07:51:59;;;;;;;10.03;8.30;;;5.70;99.90;;;;;;5057114;28;20460;-37
2022/04/04 07:54:25;;;;;;;8.63;6.90;;;5.80;99.90;;;;;;5047829;28;20826;-33
2022/04/04 07:56:53;;;;;;;8.47;7.60;;;5.90;99.90;;;;;;5048008;28;20254;-35
2022/04/04 07:59:19;;;;;;;8.43;7.57;;;6.40;99.90;;;;;;5066399;28;20662;-33
2022/04/04 08:01:45;;;;;;;11.20;8.97;;;6.30;99.90;;;;;;5066610;28;20503;-38
2022/04/04 08:04:12;;;;;;;7.90;7.10;;;6.50;99.90;;;;;;5046282;28;20439;-35
2022/04/04 08:06:37;;;;;;;9.27;7.50;;;6.30;99.90;;;;;;5055241;28;20715;-36
2022/04/04 08:09:03;;;;;;;8.03;6.83;;;6.60;99.90;;;;;;5052540;28;20641;-34
2022/04/04 08:11:29;;;;;;;10.30;7.63;;;6.60;99.90;;;;;;5067245;28;20193;-36
2022/04/04 08:13:54;;;;;;;10.50;8.30;;;6.70;99.90;;;;;;5060791;28;20228;-37
2022/04/04 08:16:22;;;;;;;9.33;7.40;;;6.70;99.90;;;;;;5048967;28;20190;-37
2022/04/04 08:18:48;;;;;;;10.30;7.47;;;6.60;99.90;;;;;;5051330;28;20182;-39
2022/04/04 08:21:15;;;;;;;9.30;7.40;;;6.70;99.90;;;;;;5050671;28;20952;-39
2022/04/04 08:23:42;;;;;;;7.63;6.93;;;6.50;99.90;;;;;;5051924;28;20267;-35
2022/04/04 08:26:08;;;;;;;8.47;7.60;;;6.70;99.90;;;;;;5047751;28;20426;-36
2022/04/04 08:28:34;;;;;;;8.50;7.70;;;6.70;99.90;;;;;;5047071;28;20452;-34
2022/04/04 08:30:59;;;;;;;9.90;6.93;;;6.90;99.90;;;;;;5068209;28;20422;-35
2022/04/04 08:33:27;;;;;;;10.93;8.27;;;6.70;99.90;;;;;;5055513;28;20205;-39
2022/04/04 08:35:53;;;;;;;9.30;7.03;;;6.90;99.90;;;;;;5047498;28;20424;-36
2022/04/04 08:38:20;;;;;;;8.20;6.50;;;7.10;99.90;;;;;;5050804;28;20420;-37
2022/04/04 08:40:48;;;;;;;9.17;7.83;;;7.20;99.90;;;;;;5045369;28;20456;-37
2022/04/04 08:43:16;;;;;;;11.47;6.70;;;7.10;99.90;;;;;;5045523;28;20440;-36
2022/04/04 08:45:43;;;;;;;9.70;6.40;;;7.30;99.90;;;;;;5067107;28;20422;-38
2022/04/04 08:48:10;;;;;;;9.27;6.90;;;7.20;99.90;;;;;;5064017;28;20486;-34
2022/04/04 08:50:37;;;;;;;10.30;6.73;;;7.40;99.90;;;;;;5046353;28;20436;-39
2022/04/04 08:53:04;;;;;;;7.87;7.07;;;7.40;99.90;;;;;;5047261;28;20570;-36
2022/04/04 08:55:30;;;;;;;8.03;6.50;;;7.20;99.90;;;;;;5047062;28;20919;-35
2022/04/04 08:57:57;;;;;;;8.20;7.03;;;7.40;99.90;;;;;;5046668;28;20432;-39
2022/04/04 09:00:24;;;;;;;7.60;6.60;;;7.20;99.90;;;;;;5059242;28;20182;-36
2022/04/04 09:03:19;;;;;;;9.20;7.27;;;7.20;99.90;;;;;;5062874;28;20805;-35
2022/04/04 09:05:56;;;;;;;7.53;6.40;;;7.00;99.90;;;;;;5045788;28;20536;-36
2022/04/04 09:08:23;;;;;;;14.37;6.67;;;7.10;99.90;;;;;;5055900;28;20423;-38
2022/04/04 09:10:51;;;;;;;9.90;6.80;;;6.90;99.90;;;;;;5062874;28;20496;-37
2022/04/04 09:13:18;;;;;;;9.97;7.03;;;7.00;99.90;;;;;;5069139;28;20561;-35
2022/04/04 09:16:03;;;;;;;7.63;6.83;;;7.00;99.90;;;;;;5071796;28;20410;-36
2022/04/04 09:18:41;;;;;;;11.03;7.00;;;7.00;99.90;;;;;;5061708;28;20424;-38
2022/04/04 09:21:18;;;;;;;8.30;6.70;;;7.00;99.90;;;;;;5057515;28;20419;-34
2022/04/04 09:23:48;;;;;;;10.40;6.83;;;7.50;99.90;;;;;;5055107;28;20799;-35
2022/04/04 09:26:35;;;;;;;8.93;6.43;;;7.10;99.90;;;;;;5051287;28;20512;-37
2022/04/04 09:29:08;;;;;;;7.53;6.20;;;7.10;99.90;;;;;;5051864;28;20791;-35
2022/04/04 09:31:34;;;;;;;10.57;7.27;;;7.40;99.90;;;;;;5079859;28;20418;-39
2022/04/04 09:34:04;;;;;;;10.10;7.17;;;7.20;99.90;;;;;;5050866;28;20482;-33
2022/04/04 09:36:31;;;;;;;11.00;6.67;;;7.10;99.90;;;;;;5051857;28;20581;-37
2022/04/04 09:39:03;;;;;;;11.70;7.90;;;7.20;99.90;;;;;;5050899;28;20420;-36
2022/04/04 09:41:30;;;;;;;11.60;7.00;;;6.90;99.90;;;;;;5049989;28;20424;-36
2022/04/04 09:44:03;;;;;;;12.30;8.07;;;6.80;99.90;;;;;;5052785;28;20966;-40
2022/04/04 09:46:37;;;;;;;7.83;7.00;;;7.00;99.90;;;;;;5073407;28;20634;-36
2022/04/04 09:49:20;;;;;;;8.53;7.33;;;7.00;99.90;;;;;;5057510;28;20519;-38
2022/04/04 09:51:48;;;;;;;7.53;6.80;;;6.90;99.90;;;;;;5052689;28;20479;-32
2022/04/04 09:54:18;;;;;;;8.60;7.70;;;6.90;99.90;;;;;;5056307;28;21014;-34
2022/04/04 09:56:46;;;;;;;9.13;7.43;;;6.70;99.90;;;;;;5050231;28;20450;-37
2022/04/04 09:59:15;;;;;;;10.33;7.63;;;6.90;99.90;;;;;;5051772;28;20477;-38
2022/04/04 10:01:43;;;;;;;7.60;6.80;;;6.80;99.90;;;;;;5073779;28;20428;-38
2022/04/04 10:04:09;;;;;;;9.10;7.37;;;7.00;99.90;;;;;;5056918;28;20420;-38
2022/04/04 10:06:37;;;;;;;9.60;7.93;;;6.50;99.90;;;;;;5050852;28;20852;-37
2022/04/04 10:09:03;;;;;;;8.53;7.47;;;6.60;99.90;;;;;;5055742;28;20839;-36
2022/04/04 10:11:34;;;;;;;11.60;8.33;;;6.70;99.90;;;;;;5049372;28;20946;-38
2022/04/04 10:14:01;;;;;;;10.97;7.23;;;6.60;99.90;;;;;;5051192;28;20488;-33
2022/04/04 10:16:26;;;;;;;9.80;7.57;;;6.80;99.90;;;;;;5066355;28;20515;-37
2022/04/04 10:18:57;;;;;;;12.80;8.60;;;6.90;99.90;;;;;;5069457;28;20502;-36
2022/04/04 10:21:25;;;;;;;9.87;7.87;;;6.90;99.90;;;;;;5049344;28;20439;-34
2022/04/04 10:23:58;;;;;;;8.60;7.40;;;6.70;99.90;;;;;;5050077;28;20923;-39
2022/04/04 10:26:44;;;;;;;8.50;6.80;;;7.00;99.90;;;;;;5049570;28;20687;-39
2022/04/04 10:29:14;;;;;;;9.07;7.90;;;6.70;99.90;;;;;;5052543;28;20450;-36
2022/04/04 10:31:50;;;;;;;10.40;8.43;;;6.90;99.90;;;;;;5079621;28;20406;-38
2022/04/04 10:34:19;;;;;;;9.77;8.77;;;6.90;99.90;;;;;;5049857;28;20856;-34
2022/04/04 10:36:59;;;;;;;12.93;7.90;;;6.90;99.90;;;;;;5050156;28;20421;-34
2022/04/04 10:39:47;;;;;;;9.90;8.43;;;6.70;99.90;;;;;;5058816;28;20480;-34
2022/04/04 10:42:26;;;;;;;9.53;8.33;;;7.00;99.90;;;;;;5049312;28;20427;-35
2022/04/04 10:45:05;;;;;;;10.80;8.57;;;6.80;99.90;;;;;;5054588;28;20430;-38
2022/04/04 10:47:31;;;;;;;11.27;9.07;;;6.90;99.90;;;;;;5082165;28;20426;-38
2022/04/04 10:50:15;;;;;;;9.17;8.23;;;6.90;99.90;;;;;;5048818;28;20427;-33
2022/04/04 10:52:43;;;;;;;12.77;10.03;;;6.80;99.90;;;;;;5057251;28;20447;-36
2022/04/04 10:55:25;;;;;;;9.63;8.53;;;6.90;99.90;;;;;;5054798;28;20419;-36
2022/04/04 10:57:52;;;;;;;10.70;9.00;;;6.70;99.90;;;;;;5068734;28;20485;-39
2022/04/04 11:00:30;;;;;;;10.50;9.40;;;6.60;99.90;;;;;;5066687;28;20438;-40
2022/04/04 11:02:55;;;;;;;12.43;9.70;;;6.60;99.90;;;;;;5070382;28;20462;-38
2022/04/04 11:08:06;;;;;;;11.63;10.30;;;6.30;99.90;;;;;;5053036;28;20615;-38
2022/04/04 11:10:47;;;;;;;14.93;10.13;;;6.20;99.90;;;;;;5048322;28;20427;-37
2022/04/04 11:13:15;;;;;;;11.63;10.13;;;6.30;99.90;;;;;;5049270;28;20646;-37
2022/04/04 11:15:55;;;;;;;11.20;10.10;;;6.10;99.90;;;;;;5055328;28;20447;-35
2022/04/04 11:18:24;;;;;;;11.63;10.37;;;6.20;99.90;;;;;;5069453;28;20423;-37
2022/04/04 11:20:58;;;;;;;13.57;10.40;;;5.90;99.90;;;;;;5046670;28;21007;-37
2022/04/04 11:23:27;;;;;;;15.43;11.70;;;5.90;99.90;;;;;;5049989;28;20451;-33
2022/04/04 11:25:54;;;;;;;13.07;10.67;;;5.80;99.90;;;;;;5048844;28;20425;-38
2022/04/04 11:28:25;;;;;;;13.50;10.90;;;5.80;99.90;;;;;;5048842;28;20489;-37
2022/04/04 11:31:09;;;;;;;12.47;11.17;;;5.90;99.90;;;;;;5060774;28;20471;-36
2022/04/04 11:33:47;;;;;;;14.13;11.97;;;5.70;99.90;;;;;;5060661;28;20468;-30
2022/04/04 11:36:30;;;;;;;13.10;11.30;;;5.70;99.90;;;;;;5048159;28;20838;-36
2022/04/04 11:39:03;;;;;;;14.13;11.47;;;5.80;99.90;;;;;;5057876;28;20428;-36
2022/04/04 11:41:36;;;;;;;13.07;11.70;;;5.90;99.90;;;;;;5047375;28;20435;-35
2022/04/04 11:44:02;;;;;;;14.53;11.97;;;5.70;99.90;;;;;;5048043;28;20442;-38
2022/04/04 11:46:28;;;;;;;13.70;11.70;;;5.80;99.90;;;;;;5060221;28;20416;-38
2022/04/04 11:48:59;;;;;;;15.67;11.60;;;5.70;99.90;;;;;;5065780;28;20429;-32
2022/04/04 11:51:37;;;;;;;16.60;13.00;;;5.80;99.90;;;;;;5047458;28;20239;-35
2022/04/04 11:54:04;;;;;;;16.30;12.97;;;5.80;99.90;;;;;;5053255;28;20474;-38
2022/04/04 11:56:31;;;;;;;14.60;11.90;;;5.80;99.90;;;;;;5048183;28;20850;-34
2022/04/04 11:58:57;;;;;;;14.90;12.23;;;5.80;99.90;;;;;;5048334;28;20443;-36
2022/04/04 12:01:33;;;;;;;18.60;12.30;;;5.60;99.90;;;;;;5052561;28;20807;-37
2022/04/04 12:04:00;;;;;;;13.87;11.37;;;5.80;99.90;;;;;;5068436;28;20419;-37
2022/04/04 12:06:28;;;;;;;17.30;12.60;;;5.70;99.90;;;;;;5060800;28;20462;-36
2022/04/04 12:09:00;;;;;;;13.40;12.00;;;5.70;99.90;;;;;;5049450;28;20443;-36
2022/04/04 12:11:29;;;;;;;15.40;12.10;;;5.90;99.90;;;;;;5047379;28;20589;-36
2022/04/04 12:14:00;;;;;;;14.13;12.20;;;5.50;99.90;;;;;;5047522;28;21099;-36
2022/04/04 12:16:26;;;;;;;15.33;12.90;;;5.60;99.90;;;;;;5054230;28;20976;-38
2022/04/04 12:18:59;;;;;;;15.97;13.33;;;5.70;99.90;;;;;;5074223;28;20999;-34
2022/04/04 12:21:25;;;;;;;13.00;11.63;;;5.50;99.90;;;;;;5047398;28;20432;-39
2022/04/04 12:26:36;;;;;;;13.73;11.73;;;5.70;99.90;;;;;;5055411;28;20459;-33
2022/04/04 12:29:09;;;;;;;18.50;13.60;;;5.50;99.90;;;;;;5047540;28;20483;-36
2022/04/04 12:31:35;;;;;;;13.80;11.50;;;5.50;99.90;;;;;;5046283;28;20451;-37
2022/04/04 12:34:01;;;;;;;12.87;11.40;;;5.40;99.90;;;;;;5059179;28;20503;-36
2022/04/04 12:36:41;;;;;;;14.83;12.20;;;5.50;99.90;;;;;;5054559;28;20190;-34
2022/04/04 12:39:18;;;;;;;12.60;11.30;;;5.40;99.90;;;;;;5055946;28;20415;-36
2022/04/04 12:41:51;;;;;;;13.27;11.87;;;5.40;99.90;;;;;;5049932;28;20431;-37
2022/04/04 12:44:24;;;;;;;13.43;11.60;;;5.40;99.90;;;;;;5047353;28;20958;-37
2022/04/04 12:47:03;;;;;;;11.77;10.43;;;5.50;99.90;;;;;;5047728;28;20509;-38
2022/04/04 12:49:30;;;;;;;12.47;11.17;;;5.50;99.90;;;;;;5067238;28;20532;-38
2022/04/04 12:52:01;;;;;;;13.33;11.33;;;5.50;99.90;;;;;;5046330;28;20840;-34
2022/04/04 12:54:35;;;;;;;12.60;11.27;;;5.40;99.90;;;;;;5050452;28;20427;-37
2022/04/04 12:57:04;;;;;;;11.83;10.67;;;5.60;99.90;;;;;;5047117;28;20439;-33
2022/04/04 12:59:45;;;;;;;13.80;11.40;;;5.50;99.90;;;;;;5047134;28;20435;-37
2022/04/04 13:02:11;;;;;;;12.50;11.20;;;5.40;99.90;;;;;;5055488;28;20432;-34
2022/04/04 13:04:39;;;;;;;13.20;11.40;;;5.50;99.90;;;;;;5068119;28;20432;-37